sensor_id;sensor_type;location;lat;lon;timestamp;pressure;altitude;pressure_sealevel;temperature;humidity
77027;BME280;65956;52.986;17.490;2023-02-22T00:01:44;100332.48;;;3.96;79.96
77027;BME280;65956;52.986;17.490;2023-02-22T00:04:38;100337.02;;;3.95;79.85
77027;BME280;65956;52.986;17.490;2023-02-22T00:07:15;100332.91;;;3.96;79.65
77027;BME280;65956;52.986;17.490;2023-02-22T00:09:43;100339.14;;;3.96;79.51
77027;BME280;65956;52.986;17.490;2023-02-22T00:12:12;100339.45;;;3.98;79.35
77027;BME280;65956;52.986;17.490;2023-02-22T00:14:40;100339.21;;;4.00;79.26
77027;BME280;65956;52.986;17.490;2023-02-22T00:17:08;100345.18;;;4.03;79.19
77027;BME280;65956;52.986;17.490;2023-02-22T00:19:35;100339.51;;;4.03;79.12
77027;BME280;65956;52.986;17.490;2023-02-22T00:22:12;100339.63;;;4.01;79.43
77027;BME280;65956;52.986;17.490;2023-02-22T00:24:40;100336.59;;;3.96;79.51
77027;BME280;65956;52.986;17.490;2023-02-22T00:27:08;100335.06;;;3.90;79.35
77027;BME280;65956;52.986;17.490;2023-02-22T00:29:35;100334.17;;;3.80;79.57
77027;BME280;65956;52.986;17.490;2023-02-22T00:32:02;100335.53;;;3.72;79.80
77027;BME280;65956;52.986;17.490;2023-02-22T00:34:29;100337.91;;;3.64;79.91
77027;BME280;65956;52.986;17.490;2023-02-22T00:36:57;100337.02;;;3.54;79.85
77027;BME280;65956;52.986;17.490;2023-02-22T00:39:28;100337.60;;;3.44;80.04
77027;BME280;65956;52.986;17.490;2023-02-22T00:41:56;100335.85;;;3.30;79.90
77027;BME280;65956;52.986;17.490;2023-02-22T00:44:23;100338.52;;;3.12;80.17
77027;BME280;65956;52.986;17.490;2023-02-22T00:46:50;100343.04;;;3.01;80.41
77027;BME280;65956;52.986;17.490;2023-02-22T00:49:17;100345.21;;;2.91;80.53
77027;BME280;65956;52.986;17.490;2023-02-22T00:51:45;100345.89;;;2.73;80.58
77027;BME280;65956;52.986;17.490;2023-02-22T00:54:12;100347.17;;;2.55;80.64
77027;BME280;65956;52.986;17.490;2023-02-22T00:56:40;100352.16;;;2.37;80.79
77027;BME280;65956;52.986;17.490;2023-02-22T00:59:07;100353.15;;;2.20;80.98
77027;BME280;65956;52.986;17.490;2023-02-22T01:01:35;100357.38;;;2.06;81.39
77027;BME280;65956;52.986;17.490;2023-02-22T01:04:03;100355.70;;;1.97;81.79
77027;BME280;65956;52.986;17.490;2023-02-22T01:06:32;100360.39;;;1.92;82.21
77027;BME280;65956;52.986;17.490;2023-02-22T01:09:01;100363.31;;;1.85;82.37
77027;BME280;65956;52.986;17.490;2023-02-22T01:11:29;100367.45;;;1.79;82.66
77027;BME280;65956;52.986;17.490;2023-02-22T01:13:56;100364.63;;;1.78;82.90
77027;BME280;65956;52.986;17.490;2023-02-22T01:16:24;100366.34;;;1.87;83.19
77027;BME280;65956;52.986;17.490;2023-02-22T01:18:52;100362.86;;;1.94;83.34
77027;BME280;65956;52.986;17.490;2023-02-22T01:21:19;100361.71;;;2.02;83.61
77027;BME280;65956;52.986;17.490;2023-02-22T01:23:46;100366.36;;;2.13;83.65
77027;BME280;65956;52.986;17.490;2023-02-22T01:26:14;100363.45;;;2.16;83.29
77027;BME280;65956;52.986;17.490;2023-02-22T01:28:41;100366.98;;;2.21;83.35
77027;BME280;65956;52.986;17.490;2023-02-22T01:31:09;100369.49;;;2.30;83.30
77027;BME280;65956;52.986;17.490;2023-02-22T01:33:36;100371.25;;;2.36;83.34
77027;BME280;65956;52.986;17.490;2023-02-22T01:36:05;100373.23;;;2.40;83.05
77027;BME280;65956;52.986;17.490;2023-02-22T01:38:38;100371.09;;;2.44;83.11
77027;BME280;65956;52.986;17.490;2023-02-22T01:41:05;100371.52;;;2.46;83.00
77027;BME280;65956;52.986;17.490;2023-02-22T01:43:33;100377.60;;;2.47;83.22
77027;BME280;65956;52.986;17.490;2023-02-22T01:48:54;100382.38;;;2.44;83.09
77027;BME280;65956;52.986;17.490;2023-02-22T01:51:28;100384.33;;;2.40;83.32
77027;BME280;65956;52.986;17.490;2023-02-22T01:54:03;100381.16;;;2.36;83.20
77027;BME280;65956;52.986;17.490;2023-02-22T01:56:35;100385.55;;;2.32;83.23
77027;BME280;65956;52.986;17.490;2023-02-22T01:59:08;100389.81;;;2.29;83.27
77027;BME280;65956;52.986;17.490;2023-02-22T02:01:38;100388.69;;;2.27;83.53
77027;BME280;65956;52.986;17.490;2023-02-22T02:04:16;100389.35;;;2.30;83.90
77027;BME280;65956;52.986;17.490;2023-02-22T02:06:47;100393.13;;;2.33;83.96
77027;BME280;65956;52.986;17.490;2023-02-22T02:11:59;100391.13;;;2.33;83.59
77027;BME280;65956;52.986;17.490;2023-02-22T02:14:28;100394.42;;;2.34;83.33
77027;BME280;65956;52.986;17.490;2023-02-22T02:16:58;100397.07;;;2.35;83.18
77027;BME280;65956;52.986;17.490;2023-02-22T02:30:40;100405.41;;;2.30;82.61
77027;BME280;65956;52.986;17.490;2023-02-22T02:36:13;100405.83;;;2.32;82.40
77027;BME280;65956;52.986;17.490;2023-02-22T02:38:49;100408.08;;;2.33;82.45
77027;BME280;65956;52.986;17.490;2023-02-22T02:41:28;100412.39;;;2.32;82.70
77027;BME280;65956;52.986;17.490;2023-02-22T02:46:49;100422.10;;;2.31;82.41
77027;BME280;65956;52.986;17.490;2023-02-22T02:49:27;100426.55;;;2.30;82.24
77027;BME280;65956;52.986;17.490;2023-02-22T02:51:57;100420.04;;;2.32;81.98
77027;BME280;65956;52.986;17.490;2023-02-22T02:54:27;100427.78;;;2.34;81.79
77027;BME280;65956;52.986;17.490;2023-02-22T02:56:56;100429.58;;;2.33;81.63
77027;BME280;65956;52.986;17.490;2023-02-22T02:59:27;100427.40;;;2.30;81.48
77027;BME280;65956;52.986;17.490;2023-02-22T03:02:10;100429.46;;;2.24;81.48
77027;BME280;65956;52.986;17.490;2023-02-22T03:10:27;100436.64;;;2.19;81.17
77027;BME280;65956;52.986;17.490;2023-02-22T03:18:03;100448.05;;;2.18;80.95
77027;BME280;65956;52.986;17.490;2023-02-22T03:20:38;100448.42;;;2.20;80.97
77027;BME280;65956;52.986;17.490;2023-02-22T03:23:10;100448.88;;;2.20;81.06
77027;BME280;65956;52.986;17.490;2023-02-22T03:25:51;100448.75;;;2.18;80.92
77027;BME280;65956;52.986;17.490;2023-02-22T03:28:23;100448.54;;;2.14;80.86
77027;BME280;65956;52.986;17.490;2023-02-22T03:30:57;100452.25;;;2.12;80.91
77027;BME280;65956;52.986;17.490;2023-02-22T03:33:39;100456.65;;;2.10;80.97
77027;BME280;65956;52.986;17.490;2023-02-22T03:36:21;100459.17;;;2.10;80.85
77027;BME280;65956;52.986;17.490;2023-02-22T03:38:54;100455.52;;;2.07;80.90
77027;BME280;65956;52.986;17.490;2023-02-22T03:41:25;100456.23;;;2.05;81.04
77027;BME280;65956;52.986;17.490;2023-02-22T03:44:02;100453.95;;;2.02;81.10
77027;BME280;65956;52.986;17.490;2023-02-22T03:46:33;100457.36;;;2.01;81.23
77027;BME280;65956;52.986;17.490;2023-02-22T03:51:39;100460.17;;;2.01;81.13
77027;BME280;65956;52.986;17.490;2023-02-22T03:54:07;100464.33;;;1.98;81.25
77027;BME280;65956;52.986;17.490;2023-02-22T03:56:45;100464.48;;;1.93;81.41
77027;BME280;65956;52.986;17.490;2023-02-22T03:59:19;100466.77;;;1.92;81.40
77027;BME280;65956;52.986;17.490;2023-02-22T04:01:56;100468.07;;;1.91;81.43
77027;BME280;65956;52.986;17.490;2023-02-22T04:04:24;100472.05;;;1.90;81.55
77027;BME280;65956;52.986;17.490;2023-02-22T04:06:52;100472.32;;;1.87;81.55
77027;BME280;65956;52.986;17.490;2023-02-22T04:09:20;100478.64;;;1.85;81.56
77027;BME280;65956;52.986;17.490;2023-02-22T04:11:48;100479.90;;;1.85;81.63
77027;BME280;65956;52.986;17.490;2023-02-22T04:14:15;100482.41;;;1.86;81.61
77027;BME280;65956;52.986;17.490;2023-02-22T04:16:42;100486.98;;;1.86;81.65
77027;BME280;65956;52.986;17.490;2023-02-22T04:19:10;100486.77;;;1.82;81.85
77027;BME280;65956;52.986;17.490;2023-02-22T04:21:38;100489.86;;;1.79;81.71
77027;BME280;65956;52.986;17.490;2023-02-22T04:24:11;100487.55;;;1.77;81.88
77027;BME280;65956;52.986;17.490;2023-02-22T04:26:40;100487.48;;;1.75;81.94
77027;BME280;65956;52.986;17.490;2023-02-22T04:29:07;100493.79;;;1.76;81.98
77027;BME280;65956;52.986;17.490;2023-02-22T04:31:38;100494.45;;;1.75;82.00
77027;BME280;65956;52.986;17.490;2023-02-22T04:34:06;100494.02;;;1.73;82.11
77027;BME280;65956;52.986;17.490;2023-02-22T04:36:36;100499.98;;;1.71;82.13
77027;BME280;65956;52.986;17.490;2023-02-22T04:39:04;100507.06;;;1.69;82.16
77027;BME280;65956;52.986;17.490;2023-02-22T04:41:32;100506.27;;;1.68;82.17
77027;BME280;65956;52.986;17.490;2023-02-22T04:44:00;100510.72;;;1.68;82.29
77027;BME280;65956;52.986;17.490;2023-02-22T04:46:28;100510.00;;;1.66;82.26
77027;BME280;65956;52.986;17.490;2023-02-22T04:48:57;100511.41;;;1.61;82.30
77027;BME280;65956;52.986;17.490;2023-02-22T04:51:26;100513.08;;;1.56;82.43
77027;BME280;65956;52.986;17.490;2023-02-22T04:54:00;100516.36;;;1.52;82.41
77027;BME280;65956;52.986;17.490;2023-02-22T04:56:27;100516.05;;;1.50;82.28
77027;BME280;65956;52.986;17.490;2023-02-22T04:58:54;100517.58;;;1.51;82.45
77027;BME280;65956;52.986;17.490;2023-02-22T05:01:22;100517.00;;;1.49;82.57
77027;BME280;65956;52.986;17.490;2023-02-22T05:03:49;100519.21;;;1.46;82.67
77027;BME280;65956;52.986;17.490;2023-02-22T05:06:17;100517.85;;;1.43;82.74
77027;BME280;65956;52.986;17.490;2023-02-22T05:08:44;100517.42;;;1.40;82.81
77027;BME280;65956;52.986;17.490;2023-02-22T05:11:11;100523.66;;;1.39;82.77
77027;BME280;65956;52.986;17.490;2023-02-22T05:13:39;100523.58;;;1.40;82.80
77027;BME280;65956;52.986;17.490;2023-02-22T05:16:06;100523.98;;;1.39;82.80
77027;BME280;65956;52.986;17.490;2023-02-22T05:18:33;100528.40;;;1.39;82.72
77027;BME280;65956;52.986;17.490;2023-02-22T05:21:00;100524.58;;;1.36;82.90
77027;BME280;65956;52.986;17.490;2023-02-22T05:23:27;100522.40;;;1.35;82.92
77027;BME280;65956;52.986;17.490;2023-02-22T05:25:54;100531.54;;;1.34;82.90
77027;BME280;65956;52.986;17.490;2023-02-22T05:28:22;100532.70;;;1.34;82.80
77027;BME280;65956;52.986;17.490;2023-02-22T05:30:49;100537.16;;;1.34;82.82
77027;BME280;65956;52.986;17.490;2023-02-22T05:33:16;100537.95;;;1.32;82.86
77027;BME280;65956;52.986;17.490;2023-02-22T05:35:43;100539.80;;;1.31;82.88
77027;BME280;65956;52.986;17.490;2023-02-22T05:38:13;100539.40;;;1.29;82.81
77027;BME280;65956;52.986;17.490;2023-02-22T05:40:41;100541.05;;;1.29;82.82
77027;BME280;65956;52.986;17.490;2023-02-22T05:43:09;100541.73;;;1.30;82.90
77027;BME280;65956;52.986;17.490;2023-02-22T05:45:36;100545.15;;;1.31;82.89
77027;BME280;65956;52.986;17.490;2023-02-22T05:48:04;100543.62;;;1.32;82.85
77027;BME280;65956;52.986;17.490;2023-02-22T05:50:31;100545.93;;;1.31;82.74
77027;BME280;65956;52.986;17.490;2023-02-22T05:52:59;100547.30;;;1.31;82.70
77027;BME280;65956;52.986;17.490;2023-02-22T05:55:27;100546.27;;;1.28;82.74
77027;BME280;65956;52.986;17.490;2023-02-22T05:57:54;100552.23;;;1.26;82.71
77027;BME280;65956;52.986;17.490;2023-02-22T06:00:28;100548.81;;;1.25;82.62
77027;BME280;65956;52.986;17.490;2023-02-22T06:03:01;100551.63;;;1.24;82.71
77027;BME280;65956;52.986;17.490;2023-02-22T06:05:29;100555.73;;;1.24;82.67
77027;BME280;65956;52.986;17.490;2023-02-22T06:07:58;100553.70;;;1.22;82.50
77027;BME280;65956;52.986;17.490;2023-02-22T06:10:26;100554.55;;;1.21;82.33
77027;BME280;65956;52.986;17.490;2023-02-22T06:12:54;100558.40;;;1.20;82.30
77027;BME280;65956;52.986;17.490;2023-02-22T06:15:23;100556.60;;;1.20;82.23
77027;BME280;65956;52.986;17.490;2023-02-22T06:17:52;100563.12;;;1.20;82.23
77027;BME280;65956;52.986;17.490;2023-02-22T06:20:22;100566.55;;;1.21;82.11
77027;BME280;65956;52.986;17.490;2023-02-22T06:22:50;100569.11;;;1.22;81.81
77027;BME280;65956;52.986;17.490;2023-02-22T06:25:22;100572.37;;;1.21;81.72
77027;BME280;65956;52.986;17.490;2023-02-22T06:27:50;100573.98;;;1.24;81.64
77027;BME280;65956;52.986;17.490;2023-02-22T06:30:19;100573.00;;;1.26;81.35
77027;BME280;65956;52.986;17.490;2023-02-22T06:32:47;100577.52;;;1.30;81.32
77027;BME280;65956;52.986;17.490;2023-02-22T06:35:15;100577.59;;;1.35;81.28
77027;BME280;65956;52.986;17.490;2023-02-22T06:37:42;100581.16;;;1.38;81.15
77027;BME280;65956;52.986;17.490;2023-02-22T06:40:11;100582.02;;;1.39;81.04
77027;BME280;65956;52.986;17.490;2023-02-22T06:42:40;100582.84;;;1.41;81.04
77027;BME280;65956;52.986;17.490;2023-02-22T06:45:08;100589.98;;;1.44;80.92
77027;BME280;65956;52.986;17.490;2023-02-22T06:47:39;100592.31;;;1.49;80.80
77027;BME280;65956;52.986;17.490;2023-02-22T06:50:17;100601.68;;;1.52;80.62
77027;BME280;65956;52.986;17.490;2023-02-22T06:52:45;100602.33;;;1.58;80.57
77027;BME280;65956;52.986;17.490;2023-02-22T06:55:19;100604.27;;;1.65;80.57
77027;BME280;65956;52.986;17.490;2023-02-22T06:57:46;100607.95;;;1.68;80.17
77027;BME280;65956;52.986;17.490;2023-02-22T07:00:16;100611.77;;;1.72;79.72
77027;BME280;65956;52.986;17.490;2023-02-22T07:02:45;100613.59;;;1.77;79.55
77027;BME280;65956;52.986;17.490;2023-02-22T07:05:16;100615.38;;;1.81;79.54
77027;BME280;65956;52.986;17.490;2023-02-22T07:07:44;100613.60;;;1.83;79.42
77027;BME280;65956;52.986;17.490;2023-02-22T07:10:27;100618.29;;;1.83;79.33
77027;BME280;65956;52.986;17.490;2023-02-22T07:12:54;100622.36;;;1.80;79.17
77027;BME280;65956;52.986;17.490;2023-02-22T07:15:24;100625.19;;;1.79;79.00
77027;BME280;65956;52.986;17.490;2023-02-22T07:17:52;100629.42;;;1.79;79.06
77027;BME280;65956;52.986;17.490;2023-02-22T07:20:25;100628.58;;;1.80;79.00
77027;BME280;65956;52.986;17.490;2023-02-22T07:22:53;100629.84;;;1.79;78.90
77027;BME280;65956;52.986;17.490;2023-02-22T07:25:22;100631.73;;;1.77;78.55
77027;BME280;65956;52.986;17.490;2023-02-22T07:27:49;100628.05;;;1.77;78.61
77027;BME280;65956;52.986;17.490;2023-02-22T07:30:22;100627.85;;;1.78;78.23
77027;BME280;65956;52.986;17.490;2023-02-22T07:32:59;100630.13;;;1.77;77.59
77027;BME280;65956;52.986;17.490;2023-02-22T07:35:31;100629.85;;;1.79;77.36
77027;BME280;65956;52.986;17.490;2023-02-22T07:37:58;100628.71;;;1.82;77.31
77027;BME280;65956;52.986;17.490;2023-02-22T07:40:26;100625.71;;;1.86;77.08
77027;BME280;65956;52.986;17.490;2023-02-22T07:45:24;100626.04;;;1.94;76.03
77027;BME280;65956;52.986;17.490;2023-02-22T07:47:53;100622.05;;;1.98;75.20
77027;BME280;65956;52.986;17.490;2023-02-22T07:50:22;100626.57;;;2.02;74.96
77027;BME280;65956;52.986;17.490;2023-02-22T07:52:52;100625.64;;;2.07;75.49
77027;BME280;65956;52.986;17.490;2023-02-22T07:55:23;100625.13;;;2.16;75.65
77027;BME280;65956;52.986;17.490;2023-02-22T07:57:53;100624.45;;;2.18;74.98
77027;BME280;65956;52.986;17.490;2023-02-22T08:02:54;100628.84;;;2.24;74.01
77027;BME280;65956;52.986;17.490;2023-02-22T08:05:24;100624.27;;;2.24;73.16
77027;BME280;65956;52.986;17.490;2023-02-22T08:07:52;100625.10;;;2.24;72.74
77027;BME280;65956;52.986;17.490;2023-02-22T08:10:22;100626.14;;;2.27;72.87
77027;BME280;65956;52.986;17.490;2023-02-22T08:12:51;100628.20;;;2.30;72.69
77027;BME280;65956;52.986;17.490;2023-02-22T08:15:24;100633.33;;;2.31;72.28
77027;BME280;65956;52.986;17.490;2023-02-22T08:17:52;100633.26;;;2.35;72.12
77027;BME280;65956;52.986;17.490;2023-02-22T08:20:20;100632.51;;;2.41;71.90
77027;BME280;65956;52.986;17.490;2023-02-22T08:22:48;100634.50;;;2.45;71.18
77027;BME280;65956;52.986;17.490;2023-02-22T08:25:20;100637.27;;;2.50;71.26
77027;BME280;65956;52.986;17.490;2023-02-22T08:27:49;100631.48;;;2.57;70.72
77027;BME280;65956;52.986;17.490;2023-02-22T08:30:21;100632.77;;;2.61;69.92
77027;BME280;65956;52.986;17.490;2023-02-22T08:32:49;100635.21;;;2.66;69.87
77027;BME280;65956;52.986;17.490;2023-02-22T08:35:19;100642.34;;;2.77;70.85
77027;BME280;65956;52.986;17.490;2023-02-22T08:37:56;100646.36;;;2.92;71.39
77027;BME280;65956;52.986;17.490;2023-02-22T08:40:28;100645.08;;;3.06;70.20
77027;BME280;65956;52.986;17.490;2023-02-22T08:42:57;100642.55;;;3.12;69.39
77027;BME280;65956;52.986;17.490;2023-02-22T08:45:24;100639.21;;;3.22;69.47
77027;BME280;65956;52.986;17.490;2023-02-22T08:47:51;100638.95;;;3.29;68.35
77027;BME280;65956;52.986;17.490;2023-02-22T08:50:30;100639.48;;;3.35;68.03
77027;BME280;65956;52.986;17.490;2023-02-22T08:53:04;100641.20;;;3.42;67.89
77027;BME280;65956;52.986;17.490;2023-02-22T08:55:35;100643.64;;;3.48;67.83
77027;BME280;65956;52.986;17.490;2023-02-22T08:58:03;100647.33;;;3.58;68.05
77027;BME280;65956;52.986;17.490;2023-02-22T09:00:32;100651.21;;;3.63;67.20
77027;BME280;65956;52.986;17.490;2023-02-22T09:03:01;100650.91;;;3.70;66.80
77027;BME280;65956;52.986;17.490;2023-02-22T09:05:29;100654.21;;;3.78;67.10
77027;BME280;65956;52.986;17.490;2023-02-22T09:07:58;100656.17;;;3.90;67.45
77027;BME280;65956;52.986;17.490;2023-02-22T09:10:28;100655.60;;;4.02;67.12
77027;BME280;65956;52.986;17.490;2023-02-22T09:12:56;100656.21;;;4.15;66.82
77027;BME280;65956;52.986;17.490;2023-02-22T09:15:27;100661.48;;;4.23;66.73
77027;BME280;65956;52.986;17.490;2023-02-22T09:17:54;100663.71;;;4.30;65.82
77027;BME280;65956;52.986;17.490;2023-02-22T09:20:23;100662.88;;;4.37;65.42
77027;BME280;65956;52.986;17.490;2023-02-22T09:22:51;100659.45;;;4.40;64.87
77027;BME280;65956;52.986;17.490;2023-02-22T09:25:19;100661.82;;;4.54;66.08
77027;BME280;65956;52.986;17.490;2023-02-22T09:27:50;100661.20;;;4.66;65.30
77027;BME280;65956;52.986;17.490;2023-02-22T09:30:30;100659.52;;;4.72;63.77
77027;BME280;65956;52.986;17.490;2023-02-22T09:33:18;100661.56;;;4.74;63.70
77027;BME280;65956;52.986;17.490;2023-02-22T09:35:48;100660.76;;;4.80;62.46
77027;BME280;65956;52.986;17.490;2023-02-22T09:38:19;100662.02;;;4.89;63.60
77027;BME280;65956;52.986;17.490;2023-02-22T09:41:16;100667.47;;;4.99;63.18
77027;BME280;65956;52.986;17.490;2023-02-22T09:43:48;100666.41;;;5.06;62.86
77027;BME280;65956;52.986;17.490;2023-02-22T09:46:26;100668.11;;;5.12;63.00
77027;BME280;65956;52.986;17.490;2023-02-22T09:49:15;100672.17;;;5.20;62.63
77027;BME280;65956;52.986;17.490;2023-02-22T09:51:53;100670.70;;;5.26;61.90
77027;BME280;65956;52.986;17.490;2023-02-22T09:57:47;100665.96;;;5.24;60.33
77027;BME280;65956;52.986;17.490;2023-02-22T10:00:21;100661.27;;;5.18;60.34
77027;BME280;65956;52.986;17.490;2023-02-22T10:03:16;100666.98;;;5.19;61.11
77027;BME280;65956;52.986;17.490;2023-02-22T10:06:10;100664.31;;;5.19;60.78
77027;BME280;65956;52.986;17.490;2023-02-22T10:08:39;100672.13;;;5.17;60.45
77027;BME280;65956;52.986;17.490;2023-02-22T10:16:53;100677.95;;;5.22;61.89
77027;BME280;65956;52.986;17.490;2023-02-22T10:19:35;100678.71;;;5.20;61.25
77027;BME280;65956;52.986;17.490;2023-02-22T10:24:43;100678.39;;;5.07;60.58
77027;BME280;65956;52.986;17.490;2023-02-22T10:27:26;100677.27;;;5.07;61.00
77027;BME280;65956;52.986;17.490;2023-02-22T10:32:51;100674.13;;;5.07;60.41
77027;BME280;65956;52.986;17.490;2023-02-22T10:35:24;100671.91;;;5.09;60.86
77027;BME280;65956;52.986;17.490;2023-02-22T10:37:56;100669.52;;;5.14;60.96
77027;BME280;65956;52.986;17.490;2023-02-22T10:40:25;100663.23;;;5.18;60.81
77027;BME280;65956;52.986;17.490;2023-02-22T10:43:06;100656.09;;;5.19;60.68
77027;BME280;65956;52.986;17.490;2023-02-22T10:45:35;100657.94;;;5.23;60.47
77027;BME280;65956;52.986;17.490;2023-02-22T10:48:16;100658.17;;;5.26;60.21
77027;BME280;65956;52.986;17.490;2023-02-22T10:51:07;100654.89;;;5.31;59.64
77027;BME280;65956;52.986;17.490;2023-02-22T10:53:36;100656.81;;;5.33;59.04
77027;BME280;65956;52.986;17.490;2023-02-22T10:56:21;100649.35;;;5.40;58.13
77027;BME280;65956;52.986;17.490;2023-02-22T10:58:59;100651.66;;;5.42;57.63
77027;BME280;65956;52.986;17.490;2023-02-22T11:04:13;100656.63;;;5.55;57.71
77027;BME280;65956;52.986;17.490;2023-02-22T11:06:45;100658.98;;;5.60;57.65
77027;BME280;65956;52.986;17.490;2023-02-22T11:09:20;100653.98;;;5.64;56.87
77027;BME280;65956;52.986;17.490;2023-02-22T11:12:05;100654.27;;;5.68;55.61
77027;BME280;65956;52.986;17.490;2023-02-22T11:14:33;100644.13;;;5.73;56.75
77027;BME280;65956;52.986;17.490;2023-02-22T11:17:06;100643.92;;;5.85;57.12
77027;BME280;65956;52.986;17.490;2023-02-22T11:19:34;100641.74;;;6.01;57.77
77027;BME280;65956;52.986;17.490;2023-02-22T11:22:11;100645.11;;;6.16;56.56
77027;BME280;65956;52.986;17.490;2023-02-22T11:24:48;100644.27;;;6.32;56.67
77027;BME280;65956;52.986;17.490;2023-02-22T11:33:15;100654.33;;;6.89;55.11
77027;BME280;65956;52.986;17.490;2023-02-22T11:35:58;100650.36;;;7.19;53.81
77027;BME280;65956;52.986;17.490;2023-02-22T11:38:34;100648.66;;;8.20;52.27
77027;BME280;65956;52.986;17.490;2023-02-22T11:43:45;100635.73;;;13.52;45.84
77027;BME280;65956;52.986;17.490;2023-02-22T11:46:19;100637.83;;;15.42;43.38
77027;BME280;65956;52.986;17.490;2023-02-22T11:48:59;100642.43;;;17.06;40.89
77027;BME280;65956;52.986;17.490;2023-02-22T11:51:40;100640.54;;;18.29;40.21
77027;BME280;65956;52.986;17.490;2023-02-22T12:03:01;100643.13;;;22.03;32.79
77027;BME280;65956;52.986;17.490;2023-02-22T12:05:42;100641.17;;;22.23;33.83
77027;BME280;65956;52.986;17.490;2023-02-22T12:08:34;100642.00;;;22.84;33.44
77027;BME280;65956;52.986;17.490;2023-02-22T12:11:22;100643.63;;;23.31;32.47
77027;BME280;65956;52.986;17.490;2023-02-22T12:16:32;100642.94;;;24.36;31.16
77027;BME280;65956;52.986;17.490;2023-02-22T12:21:33;100645.54;;;23.53;28.24
77027;BME280;65956;52.986;17.490;2023-02-22T12:26:39;100649.15;;;22.28;28.89
77027;BME280;65956;52.986;17.490;2023-02-22T12:29:15;100645.05;;;21.99;28.28
77027;BME280;65956;52.986;17.490;2023-02-22T12:31:51;100654.21;;;20.08;29.94
77027;BME280;65956;52.986;17.490;2023-02-22T12:34:33;100647.09;;;19.22;30.61
77027;BME280;65956;52.986;17.490;2023-02-22T12:37:21;100647.58;;;17.19;32.17
77027;BME280;65956;52.986;17.490;2023-02-22T12:48:43;100649.55;;;20.02;28.79
77027;BME280;65956;52.986;17.490;2023-02-22T12:51:34;100652.29;;;20.55;28.30
77027;BME280;65956;52.986;17.490;2023-02-22T12:59:32;100642.60;;;22.49;26.74
77027;BME280;65956;52.986;17.490;2023-02-22T13:02:14;100641.39;;;23.02;26.34
77027;BME280;65956;52.986;17.490;2023-02-22T13:04:45;100642.58;;;23.90;25.28
77027;BME280;65956;52.986;17.490;2023-02-22T13:07:38;100641.51;;;24.18;24.51
77027;BME280;65956;52.986;17.490;2023-02-22T13:13:19;100642.15;;;25.12;23.62
77027;BME280;65956;52.986;17.490;2023-02-22T13:16:19;100639.69;;;25.33;22.94
77027;BME280;65956;52.986;17.490;2023-02-22T13:18:51;100635.40;;;24.85;22.80
77027;BME280;65956;52.986;17.490;2023-02-22T13:21:37;100634.89;;;24.57;23.23
77027;BME280;65956;52.986;17.490;2023-02-22T13:26:52;100630.88;;;22.68;22.18
77027;BME280;65956;52.986;17.490;2023-02-22T13:29:45;100636.00;;;21.45;23.03
77027;BME280;65956;52.986;17.490;2023-02-22T13:32:51;100634.45;;;20.26;24.27
77027;BME280;65956;52.986;17.490;2023-02-22T13:49:43;100634.38;;;16.96;28.10
77027;BME280;65956;52.986;17.490;2023-02-22T13:52:17;100635.34;;;17.15;28.14
77027;BME280;65956;52.986;17.490;2023-02-22T13:54:54;100636.95;;;17.95;26.88
77027;BME280;65956;52.986;17.490;2023-02-22T13:57:30;100638.24;;;19.17;26.62
77027;BME280;65956;52.986;17.490;2023-02-22T14:00:21;100634.43;;;20.03;25.36
77027;BME280;65956;52.986;17.490;2023-02-22T14:13:18;100629.15;;;17.45;27.21
77027;BME280;65956;52.986;17.490;2023-02-22T14:18:39;100638.20;;;16.20;28.95
77027;BME280;65956;52.986;17.490;2023-02-22T14:21:21;100640.11;;;16.36;28.52
77027;BME280;65956;52.986;17.490;2023-02-22T14:23:50;100641.48;;;16.45;28.56
77027;BME280;65956;52.986;17.490;2023-02-22T14:29:13;100631.44;;;17.89;27.97
77027;BME280;65956;52.986;17.490;2023-02-22T14:34:19;100629.80;;;19.26;27.01
77027;BME280;65956;52.986;17.490;2023-02-22T14:36:53;100628.70;;;19.58;25.56
77027;BME280;65956;52.986;17.490;2023-02-22T14:39:44;100630.30;;;19.33;26.02
77027;BME280;65956;52.986;17.490;2023-02-22T14:42:35;100634.55;;;19.59;25.85
77027;BME280;65956;52.986;17.490;2023-02-22T14:45:15;100634.39;;;19.80;25.74
77027;BME280;65956;52.986;17.490;2023-02-22T14:47:59;100634.94;;;20.02;25.79
77027;BME280;65956;52.986;17.490;2023-02-22T14:50:59;100637.14;;;19.95;25.15
77027;BME280;65956;52.986;17.490;2023-02-22T14:53:43;100637.21;;;19.41;25.68
77027;BME280;65956;52.986;17.490;2023-02-22T15:03:46;100631.91;;;18.46;26.77
77027;BME280;65956;52.986;17.490;2023-02-22T15:06:24;100632.30;;;18.51;26.38
77027;BME280;65956;52.986;17.490;2023-02-22T15:09:10;100633.36;;;18.13;26.58
77027;BME280;65956;52.986;17.490;2023-02-22T15:11:38;100629.98;;;17.91;26.65
77027;BME280;65956;52.986;17.490;2023-02-22T15:14:18;100630.33;;;17.52;27.17
77027;BME280;65956;52.986;17.490;2023-02-22T15:16:49;100633.52;;;17.25;27.74
77027;BME280;65956;52.986;17.490;2023-02-22T15:19:23;100636.83;;;16.82;28.60
77027;BME280;65956;52.986;17.490;2023-02-22T15:21:54;100637.30;;;16.42;29.03
77027;BME280;65956;52.986;17.490;2023-02-22T15:24:28;100638.05;;;16.18;29.27
77027;BME280;65956;52.986;17.490;2023-02-22T15:27:12;100635.44;;;15.66;29.96
77027;BME280;65956;52.986;17.490;2023-02-22T15:29:42;100634.72;;;14.13;31.14
77027;BME280;65956;52.986;17.490;2023-02-22T15:32:30;100637.11;;;12.55;32.86
77027;BME280;65956;52.986;17.490;2023-02-22T15:37:42;100636.91;;;9.84;36.49
77027;BME280;65956;52.986;17.490;2023-02-22T15:40:16;100637.42;;;8.94;37.90
77027;BME280;65956;52.986;17.490;2023-02-22T15:42:49;100647.15;;;8.23;39.13